Time;durP1;ratioP1;P1;durP2;ratioP2;P2;SDS_P1;SDS_P2;PMS_P1;PMS_P2;Temp;Humidity;BMP_temperature;BMP_pressure;BME280_temperature;BME280_humidity;BME280_pressure;Samples;Min_cycle;Max_cycle;Signal;HPM_P1;HPM_P2
2022/05/12 00:00:01;;;;;;;;;;;;;;;;;;350143;28;968;-81
2022/05/12 00:00:14;;;;;;;;;;;;;;;;;;349966;28;1014;-81
2022/05/12 00:00:26;;;;;;;;;;;;;;;;;;350175;28;826;-81
2022/05/12 00:00:36;;;;;;;;;;;;;;;;;;350183;28;992;-81
2022/05/12 00:00:46;;;;;;;;;;;;;;;;;;350127;28;967;-81
2022/05/12 00:00:56;;;;;;;;;;;;;;;;;;350031;28;990;-81
2022/05/12 00:01:07;;;;;;;;;;;;;;;;;;350203;28;805;-81
2022/05/12 00:01:17;;;;;;;;;;;;;;;;;;350116;28;1169;-81
2022/05/12 00:01:27;;;;;;;;;;;;;;;;;;350147;28;968;-81
2022/05/12 00:01:37;;;;;;;;;;;;;;;;;;350131;28;931;-81
2022/05/12 00:01:48;;;;;;;;;;;;;;;;;;350172;28;1127;-81
2022/05/12 00:01:58;;;;;;;;;;;;;;;;;;350159;28;873;-81
2022/05/12 00:02:09;;;;;;;;;;;;;;;;;;350222;28;770;-81
2022/05/12 00:02:19;;;;;;;;;;;;;;;;;;350155;28;995;-81
2022/05/12 00:02:30;;;;;;;;;;;;;;;;;;350219;28;762;-81
2022/05/12 00:02:40;;;;;;;;;;;;;;;;;;349986;28;986;-81
2022/05/12 00:02:50;;;;;;;;;;;;;;;;;;350163;28;998;-81
2022/05/12 00:03:02;;;;;;;;;;;;;;;;;;350136;28;980;-81
2022/05/12 00:03:13;;;;;;;;;;;;;;;;;;350162;28;923;-81
2022/05/12 00:03:24;;;;;;;;;;;;;;;;;;350082;28;1075;-81
2022/05/12 00:03:35;;;;;;;;;;;;;;;;;;350188;28;999;-81
2022/05/12 00:03:46;;;;;;;;;;;;;;;;;;350154;28;1002;-81
2022/05/12 00:03:56;;;;;;;;;;;;;;;;;;350151;28;1007;-81
2022/05/12 00:04:06;;;;;;;;;;;;;;;;;;350118;28;924;-81
2022/05/12 00:04:16;;;;;;;;;;;;;;;;;;350157;28;848;-81
2022/05/12 00:04:27;;;;;;;;;;;;;;;;;;350120;28;952;-81
2022/05/12 00:04:38;;;;;;;;;;;;;;;;;;350173;28;936;-81
2022/05/12 00:04:48;;;;;;;;;;;;;;;;;;350114;28;1031;-81
2022/05/12 00:04:59;;;;;;;;;;;;;;;;;;350183;28;853;-81
2022/05/12 00:05:09;;;;;;;;;;;;;;;;;;350153;28;974;-81
2022/05/12 00:05:20;;;;;;;;;;;;;;;;;;350176;28;988;-81
2022/05/12 00:05:31;;;;;;;;;;;;;;;;;;350122;28;781;-81
2022/05/12 00:05:41;;;;;;;;;;;;;;;;;;350170;28;796;-81
2022/05/12 00:05:51;;;;;;;;;;;;;;;;;;350112;28;920;-81
2022/05/12 00:06:02;;;;;;;;;;;;;;;;;;350218;28;787;-81
2022/05/12 00:06:13;;;;;;;;;;;;;;;;;;350141;28;891;-81
2022/05/12 00:06:23;;;;;;;;;;;;;;;;;;350166;28;983;-81
2022/05/12 00:06:35;;;;;;;;;;;;;;;;;;350012;28;1150;-82
2022/05/12 00:06:45;;;;;;;;;;;;;;;;;;350212;28;916;-82
2022/05/12 00:06:55;;;;;;;;;;;;;;;;;;350099;28;908;-81
2022/05/12 00:07:06;;;;;;;;;;;;;;;;;;350186;28;860;-81
2022/05/12 00:07:16;;;;;;;;;;;;;;;;;;350212;28;960;-81
2022/05/12 00:07:26;;;;;;;;;;;;;;;;;;349826;28;1554;-81
2022/05/12 00:07:36;;;;;;;;;;;;;;;;;;350038;28;1582;-81
2022/05/12 00:07:47;;;;;;;;;;;;;;;;;;349985;28;995;-81
2022/05/12 00:07:57;;;;;;;;;;;;;;;;;;350028;28;1967;-81
2022/05/12 00:08:08;;;;;;;;;;;;;;;;;;350117;28;987;-81
2022/05/12 00:08:18;;;;;;;;;;;;;;;;;;350202;28;872;-81
2022/05/12 00:08:28;;;;;;;;;;;;;;;;;;349951;28;1003;-81
2022/05/12 00:08:39;;;;;;;;;;;;;;;;;;350163;28;884;-81
2022/05/12 00:08:49;;;;;;;;;;;;;;;;;;350212;28;975;-81
2022/05/12 00:08:59;;;;;;;;;;;;;;;;;;349939;28;999;-81
2022/05/12 00:09:09;;;;;;;;;;;;;;;;;;350152;28;801;-81
2022/05/12 00:09:20;;;;;;;;;;;;;;;;;;350005;28;1011;-81
2022/05/12 00:09:30;;;;;;;;;;;;;;;;;;350122;28;916;-81
2022/05/12 00:09:40;;;;;;;;;;;;;;;;;;349913;28;1041;-81
2022/05/12 00:09:51;;;;;;;;;;;;;;;;;;350140;28;956;-81
2022/05/12 00:10:03;;;;;;;;;;;;;;;;;;350132;28;869;-81
2022/05/12 00:10:15;;;;;;;;;;;;;;;;;;350207;28;908;-81
2022/05/12 00:10:25;;;;;;;;;;;;;;;;;;350141;28;905;-81
2022/05/12 00:10:36;;;;;;;;;;;;;;;;;;350116;28;982;-81
2022/05/12 00:10:47;;;;;;;;;;;;;;;;;;350201;28;773;-81
2022/05/12 00:10:57;;;;;;;;;;;;;;;;;;350192;28;893;-81
2022/05/12 00:11:07;;;;;;;;;;;;;;;;;;349907;28;1152;-81
2022/05/12 00:11:17;;;;;;;;;;;;;;;;;;350140;28;960;-81
2022/05/12 00:11:30;;;;;;;;;;;;;;;;;;350145;28;940;-81
2022/05/12 00:11:40;;;;;;;;;;;;;;;;;;350159;28;948;-81
2022/05/12 00:11:50;;;;;;;;;;;;;;;;;;350103;28;909;-81
2022/05/12 00:12:01;;;;;;;;;;;;;;;;;;350109;28;881;-81
2022/05/12 00:12:11;;;;;;;;;;;;;;;;;;350146;28;940;-81
2022/05/12 00:12:22;;;;;;;;;;;;;;;;;;350039;28;1096;-81
2022/05/12 00:12:32;;;;;;;;;;;;;;;;;;348756;28;1082;-81
2022/05/12 00:12:43;;;;;;;;;;;;;;;;;;348782;28;959;-81
2022/05/12 00:12:54;;;;;;;;;;;;;;;;;;348737;28;948;-81
2022/05/12 00:13:04;;;;;;;;;;;;;;;;;;348716;28;1004;-81
2022/05/12 00:13:14;;;;;;;;;;;;;;;;;;348757;28;916;-81
2022/05/12 00:13:25;;;;;;;;;;;;;;;;;;348821;28;857;-81
2022/05/12 00:13:35;;;;;;;;;;;;;;;;;;348747;28;788;-81
2022/05/12 00:13:45;;;;;;;;;;;;;;;;;;348781;28;889;-81
2022/05/12 00:13:56;;;;;;;;;;;;;;;;;;348721;28;968;-81
2022/05/12 00:14:06;;;;;;;;;;;;;;;;;;348560;28;1135;-81
2022/05/12 00:14:17;;;;;;;;;;;;;;;;;;348689;28;948;-81
2022/05/12 00:14:27;;;;;;;;;;;;;;;;;;348789;28;992;-81
2022/05/12 00:14:37;;;;;;;;;;;;;;;;;;348779;28;853;-81
2022/05/12 00:14:48;;;;;;;;;;;;;;;;;;348711;28;901;-81
2022/05/12 00:14:58;;;;;;;;;;;;;;;;;;348789;28;964;-81
2022/05/12 00:15:12;;;;;;;;;;;;;;;;;;348737;28;1005;-81
2022/05/12 00:15:24;;;;;;;;;;;;;;;;;;348616;28;1170;-81
2022/05/12 00:15:35;;;;;;;;;;;;;;;;;;348511;28;1140;-81
2022/05/12 00:15:46;;;;;;;;;;;;;;;;;;348795;28;861;-81
2022/05/12 00:15:58;;;;;;;;;;;;;;;;;;348630;28;1019;-81
2022/05/12 00:16:08;;;;;;;;;;;;;;;;;;348764;28;853;-81
2022/05/12 00:16:19;;;;;;;;;;;;;;;;;;348701;28;861;-81
2022/05/12 00:16:29;;;;;;;;;;;;;;;;;;348730;28;912;-81
2022/05/12 00:16:40;;;;;;;;;;;;;;;;;;348759;28;834;-81
2022/05/12 00:16:50;;;;;;;;;;;;;;;;;;348764;28;908;-81
2022/05/12 00:17:01;;;;;;;;;;;;;;;;;;348722;28;975;-81
2022/05/12 00:17:11;;;;;;;;;;;;;;;;;;348759;28;916;-82
2022/05/12 00:17:21;;;;;;;;;;;;;;;;;;348594;28;1134;-82
2022/05/12 00:17:32;;;;;;;;;;;;;;;;;;348704;28;983;-82
2022/05/12 00:17:44;;;;;;;;;;;;;;;;;;348738;28;921;-81
2022/05/12 00:17:54;;;;;;;;;;;;;;;;;;348726;28;1062;-81
2022/05/12 00:18:06;;;;;;;;;;;;;;;;;;348787;28;921;-81
2022/05/12 00:18:17;;;;;;;;;;;;;;;;;;348687;28;940;-81
2022/05/12 00:18:27;;;;;;;;;;;;;;;;;;348725;28;963;-81
2022/05/12 00:18:37;;;;;;;;;;;;;;;;;;348761;28;948;-81
2022/05/12 00:18:48;;;;;;;;;;;;;;;;;;348715;28;837;-81
2022/05/12 00:18:58;;;;;;;;;;;;;;;;;;348791;28;936;-81
2022/05/12 00:19:08;;;;;;;;;;;;;;;;;;348592;28;1018;-81
2022/05/12 00:19:21;;;;;;;;;;;;;;;;;;348546;28;983;-81
2022/05/12 00:19:31;;;;;;;;;;;;;;;;;;348837;28;894;-81
2022/05/12 00:19:41;;;;;;;;;;;;;;;;;;348697;28;932;-81
2022/05/12 00:19:52;;;;;;;;;;;;;;;;;;348733;28;976;-81
2022/05/12 00:20:02;;;;;;;;;;;;;;;;;;348638;28;1034;-81
2022/05/12 00:20:13;;;;;;;;;;;;;;;;;;348799;28;864;-81
2022/05/12 00:20:24;;;;;;;;;;;;;;;;;;348782;28;858;-81
2022/05/12 00:20:39;;;;;;;;;;;;;;;;;;348706;28;811;-81
2022/05/12 00:20:49;;;;;;;;;;;;;;;;;;348739;28;979;-81
2022/05/12 00:20:59;;;;;;;;;;;;;;;;;;348524;28;1019;-81
2022/05/12 00:21:09;;;;;;;;;;;;;;;;;;348743;28;845;-81
2022/05/12 00:21:20;;;;;;;;;;;;;;;;;;348601;28;1076;-81
2022/05/12 00:21:30;;;;;;;;;;;;;;;;;;348714;28;846;-81
2022/05/12 00:21:40;;;;;;;;;;;;;;;;;;348751;28;1020;-81
2022/05/12 00:21:51;;;;;;;;;;;;;;;;;;348718;28;999;-81
2022/05/12 00:22:01;;;;;;;;;;;;;;;;;;348732;28;1173;-81
2022/05/12 00:22:11;;;;;;;;;;;;;;;;;;348473;28;1090;-81
2022/05/12 00:22:21;;;;;;;;;;;;;;;;;;348723;28;861;-81
2022/05/12 00:22:31;;;;;;;;;;;;;;;;;;348683;28;928;-81
2022/05/12 00:22:42;;;;;;;;;;;;;;;;;;348749;28;1007;-81
2022/05/12 00:23:04;;;;;;;;;;;;;;;;;;348727;28;987;-81
2022/05/12 00:23:16;;;;;;;;;;;;;;;;;;348707;28;1028;-81
2022/05/12 00:23:27;;;;;;;;;;;;;;;;;;348766;28;979;-81
2022/05/12 00:23:38;;;;;;;;;;;;;;;;;;348798;28;903;-81
2022/05/12 00:23:56;;;;;;;;;;;;;;;;;;348721;28;861;-81
2022/05/12 00:24:07;;;;;;;;;;;;;;;;;;348766;28;860;-81
2022/05/12 00:24:17;;;;;;;;;;;;;;;;;;348726;28;936;-81
2022/05/12 00:24:27;;;;;;;;;;;;;;;;;;348751;28;984;-81
2022/05/12 00:24:38;;;;;;;;;;;;;;;;;;348696;28;854;-81
2022/05/12 00:24:48;;;;;;;;;;;;;;;;;;348457;28;1044;-81
2022/05/12 00:24:58;;;;;;;;;;;;;;;;;;348694;28;1008;-81
2022/05/12 00:25:10;;;;;;;;;;;;;;;;;;348572;28;1007;-81
2022/05/12 00:25:22;;;;;;;;;;;;;;;;;;348784;28;790;-81
2022/05/12 00:25:32;;;;;;;;;;;;;;;;;;348691;28;862;-81
2022/05/12 00:25:44;;;;;;;;;;;;;;;;;;348747;28;956;-81
2022/05/12 00:25:55;;;;;;;;;;;;;;;;;;348721;28;972;-82
2022/05/12 00:26:05;;;;;;;;;;;;;;;;;;348745;28;885;-82
2022/05/12 00:26:15;;;;;;;;;;;;;;;;;;348711;28;887;-82
2022/05/12 00:26:27;;;;;;;;;;;;;;;;;;348565;28;1031;-83
2022/05/12 00:26:37;;;;;;;;;;;;;;;;;;348896;28;1280;-83
2022/05/12 00:26:48;;;;;;;;;;;;;;;;;;348977;28;911;-82
2022/05/12 00:26:58;;;;;;;;;;;;;;;;;;348737;28;909;-83
2022/05/12 00:27:09;;;;;;;;;;;;;;;;;;348684;28;1222;-82
2022/05/12 00:27:19;;;;;;;;;;;;;;;;;;348776;28;917;-83
2022/05/12 00:27:29;;;;;;;;;;;;;;;;;;348625;28;1134;-82
2022/05/12 00:27:40;;;;;;;;;;;;;;;;;;348728;28;996;-82
2022/05/12 00:27:50;;;;;;;;;;;;;;;;;;348718;28;916;-82
2022/05/12 00:28:00;;;;;;;;;;;;;;;;;;348707;28;1898;-82
2022/05/12 00:28:11;;;;;;;;;;;;;;;;;;348689;28;936;-82
2022/05/12 00:28:22;;;;;;;;;;;;;;;;;;348773;28;810;-82
2022/05/12 00:28:33;;;;;;;;;;;;;;;;;;348719;28;956;-82
2022/05/12 00:28:43;;;;;;;;;;;;;;;;;;348685;28;833;-82
2022/05/12 00:28:53;;;;;;;;;;;;;;;;;;348733;28;904;-83
2022/05/12 00:29:05;;;;;;;;;;;;;;;;;;348791;28;967;-82
2022/05/12 00:29:15;;;;;;;;;;;;;;;;;;348630;28;1113;-83
2022/05/12 00:29:26;;;;;;;;;;;;;;;;;;348756;28;861;-83
2022/05/12 00:29:36;;;;;;;;;;;;;;;;;;348720;28;991;-83
2022/05/12 00:29:46;;;;;;;;;;;;;;;;;;348732;28;911;-83
2022/05/12 00:29:56;;;;;;;;;;;;;;;;;;348730;28;858;-82
2022/05/12 00:30:09;;;;;;;;;;;;;;;;;;348764;28;841;-82
2022/05/12 00:30:19;;;;;;;;;;;;;;;;;;348749;28;952;-82
2022/05/12 00:30:29;;;;;;;;;;;;;;;;;;348779;28;849;-83
2022/05/12 00:30:40;;;;;;;;;;;;;;;;;;348707;28;1044;-82
2022/05/12 00:30:51;;;;;;;;;;;;;;;;;;348547;28;1008;-82
2022/05/12 00:31:01;;;;;;;;;;;;;;;;;;348714;28;912;-83
2022/05/12 00:31:11;;;;;;;;;;;;;;;;;;348731;28;1007;-82
2022/05/12 00:31:21;;;;;;;;;;;;;;;;;;348700;28;1010;-82
2022/05/12 00:31:33;;;;;;;;;;;;;;;;;;348741;28;917;-82
2022/05/12 00:31:45;;;;;;;;;;;;;;;;;;348770;28;929;-82
2022/05/12 00:31:55;;;;;;;;;;;;;;;;;;348552;28;1018;-82
2022/05/12 00:32:05;;;;;;;;;;;;;;;;;;348771;28;866;-83
2022/05/12 00:32:16;;;;;;;;;;;;;;;;;;348958;28;1375;-83
2022/05/12 00:32:26;;;;;;;;;;;;;;;;;;350130;28;850;-82
2022/05/12 00:32:37;;;;;;;;;;;;;;;;;;348133;28;1712;-83
2022/05/12 00:32:47;;;;;;;;;;;;;;;;;;348733;28;916;-83
2022/05/12 00:32:57;;;;;;;;;;;;;;;;;;348637;28;999;-82
2022/05/12 00:33:09;;;;;;;;;;;;;;;;;;348553;28;1163;-82
2022/05/12 00:33:20;;;;;;;;;;;;;;;;;;348767;28;1059;-82
2022/05/12 00:33:31;;;;;;;;;;;;;;;;;;348790;28;770;-83
2022/05/12 00:33:41;;;;;;;;;;;;;;;;;;348682;28;829;-82
2022/05/12 00:33:51;;;;;;;;;;;;;;;;;;348734;28;973;-82
2022/05/12 00:34:03;;;;;;;;;;;;;;;;;;348740;28;921;-83
2022/05/12 00:34:15;;;;;;;;;;;;;;;;;;348717;28;964;-83
2022/05/12 00:34:25;;;;;;;;;;;;;;;;;;348633;28;1023;-83
2022/05/12 00:34:35;;;;;;;;;;;;;;;;;;348766;28;921;-82
2022/05/12 00:34:45;;;;;;;;;;;;;;;;;;348714;28;841;-83
2022/05/12 00:34:55;;;;;;;;;;;;;;;;;;348705;28;976;-82
2022/05/12 00:35:06;;;;;;;;;;;;;;;;;;348720;28;1062;-82
2022/05/12 00:35:17;;;;;;;;;;;;;;;;;;348729;28;928;-82
2022/05/12 00:35:28;;;;;;;;;;;;;;;;;;348737;28;975;-83
2022/05/12 00:35:39;;;;;;;;;;;;;;;;;;348797;28;940;-82
2022/05/12 00:35:49;;;;;;;;;;;;;;;;;;348729;28;959;-82
2022/05/12 00:35:59;;;;;;;;;;;;;;;;;;348689;28;901;-82
2022/05/12 00:36:10;;;;;;;;;;;;;;;;;;348710;28;916;-82
2022/05/12 00:36:20;;;;;;;;;;;;;;;;;;348748;28;940;-82
2022/05/12 00:36:31;;;;;;;;;;;;;;;;;;348751;28;932;-82
2022/05/12 00:36:41;;;;;;;;;;;;;;;;;;348700;28;1003;-82
2022/05/12 00:36:52;;;;;;;;;;;;;;;;;;348762;28;991;-82
2022/05/12 00:37:02;;;;;;;;;;;;;;;;;;348736;28;925;-83
2022/05/12 00:37:13;;;;;;;;;;;;;;;;;;348695;28;928;-82
2022/05/12 00:37:23;;;;;;;;;;;;;;;;;;348711;28;924;-82
2022/05/12 00:37:33;;;;;;;;;;;;;;;;;;348684;28;933;-82
2022/05/12 00:37:44;;;;;;;;;;;;;;;;;;349503;28;1508;-83
2022/05/12 00:37:54;;;;;;;;;;;;;;;;;;349998;28;1007;-82
2022/05/12 00:38:04;;;;;;;;;;;;;;;;;;350095;28;1110;-82
2022/05/12 00:38:14;;;;;;;;;;;;;;;;;;350100;28;964;-82
2022/05/12 00:38:24;;;;;;;;;;;;;;;;;;350123;28;976;-82
2022/05/12 00:38:35;;;;;;;;;;;;;;;;;;349961;28;1181;-82
2022/05/12 00:38:45;;;;;;;;;;;;;;;;;;350094;28;849;-82
2022/05/12 00:38:55;;;;;;;;;;;;;;;;;;349948;28;1012;-83
2022/05/12 00:39:05;;;;;;;;;;;;;;;;;;350093;28;904;-83
2022/05/12 00:39:16;;;;;;;;;;;;;;;;;;350046;28;983;-82
2022/05/12 00:39:26;;;;;;;;;;;;;;;;;;350122;28;920;-82
2022/05/12 00:39:36;;;;;;;;;;;;;;;;;;350117;28;920;-83
2022/05/12 00:39:46;;;;;;;;;;;;;;;;;;350055;28;999;-82
2022/05/12 00:39:57;;;;;;;;;;;;;;;;;;350136;28;873;-82
2022/05/12 00:40:08;;;;;;;;;;;;;;;;;;350126;28;963;-82
2022/05/12 00:40:18;;;;;;;;;;;;;;;;;;349451;28;1322;-82
2022/05/12 00:40:28;;;;;;;;;;;;;;;;;;349848;28;1183;-82
2022/05/12 00:40:40;;;;;;;;;;;;;;;;;;350006;28;916;-82
2022/05/12 00:40:50;;;;;;;;;;;;;;;;;;349932;28;1008;-83
2022/05/12 00:41:01;;;;;;;;;;;;;;;;;;350080;28;798;-83
2022/05/12 00:41:11;;;;;;;;;;;;;;;;;;349737;28;1158;-82
2022/05/12 00:41:22;;;;;;;;;;;;;;;;;;349896;28;984;-82
2022/05/12 00:41:32;;;;;;;;;;;;;;;;;;350018;28;921;-82
2022/05/12 00:41:42;;;;;;;;;;;;;;;;;;350033;28;956;-82
2022/05/12 00:41:52;;;;;;;;;;;;;;;;;;349960;28;941;-82
2022/05/12 00:42:03;;;;;;;;;;;;;;;;;;350053;28;932;-82
2022/05/12 00:42:13;;;;;;;;;;;;;;;;;;350011;28;840;-82
2022/05/12 00:42:23;;;;;;;;;;;;;;;;;;349845;28;1042;-82
2022/05/12 00:42:33;;;;;;;;;;;;;;;;;;350114;28;977;-82
2022/05/12 00:43:00;;;;;;;;;;;;;;;;;;350006;28;998;-82
2022/05/12 00:43:29;;;;;;;;;;;;;;;;;;349950;28;1031;-82
2022/05/12 00:43:47;;;;;;;;;;;;;;;;;;350089;28;829;-83
2022/05/12 00:44:02;;;;;;;;;;;;;;;;;;350099;28;944;-82
2022/05/12 00:44:13;;;;;;;;;;;;;;;;;;350086;28;943;-82
2022/05/12 00:44:23;;;;;;;;;;;;;;;;;;350134;28;999;-82
2022/05/12 00:44:34;;;;;;;;;;;;;;;;;;350132;28;829;-83
2022/05/12 00:44:44;;;;;;;;;;;;;;;;;;349889;28;1138;-83
2022/05/12 00:44:54;;;;;;;;;;;;;;;;;;349915;28;1059;-82
2022/05/12 00:45:04;;;;;;;;;;;;;;;;;;350117;28;920;-83
2022/05/12 00:45:15;;;;;;;;;;;;;;;;;;349630;28;1189;-82
2022/05/12 00:45:27;;;;;;;;;;;;;;;;;;350058;28;901;-82
2022/05/12 00:45:39;;;;;;;;;;;;;;;;;;350103;28;864;-82
2022/05/12 00:45:49;;;;;;;;;;;;;;;;;;350015;28;810;-82
2022/05/12 00:45:59;;;;;;;;;;;;;;;;;;350149;28;928;-82
2022/05/12 00:46:20;;;;;;;;;;;;;;;;;;350137;28;943;-83
2022/05/12 00:46:31;;;;;;;;;;;;;;;;;;350125;28;916;-82
2022/05/12 00:46:42;;;;;;;;;;;;;;;;;;350124;28;893;-82
2022/05/12 00:46:53;;;;;;;;;;;;;;;;;;350078;28;901;-82
2022/05/12 00:47:03;;;;;;;;;;;;;;;;;;349949;28;1155;-82
2022/05/12 00:47:14;;;;;;;;;;;;;;;;;;350136;28;933;-82
2022/05/12 00:47:24;;;;;;;;;;;;;;;;;;349892;28;1046;-82
2022/05/12 00:47:34;;;;;;;;;;;;;;;;;;350055;28;849;-82
2022/05/12 00:47:44;;;;;;;;;;;;;;;;;;350131;28;979;-82
2022/05/12 00:47:56;;;;;;;;;;;;;;;;;;349938;28;991;-82
2022/05/12 00:48:06;;;;;;;;;;;;;;;;;;349998;28;1961;-82
2022/05/12 00:48:17;;;;;;;;;;;;;;;;;;350103;28;830;-82
2022/05/12 00:48:27;;;;;;;;;;;;;;;;;;350068;28;956;-82
2022/05/12 00:48:37;;;;;;;;;;;;;;;;;;349908;28;1106;-82
2022/05/12 00:48:48;;;;;;;;;;;;;;;;;;349962;28;1008;-82
2022/05/12 00:49:04;;;;;;;;;;;;;;;;;;350054;28;909;-82
2022/05/12 00:49:18;;;;;;;;;;;;;;;;;;350113;28;960;-82
2022/05/12 00:49:30;;;;;;;;;;;;;;;;;;350074;28;957;-82
2022/05/12 00:49:41;;;;;;;;;;;;;;;;;;350103;28;928;-82
2022/05/12 00:49:52;;;;;;;;;;;;;;;;;;350162;28;916;-82
2022/05/12 00:50:03;;;;;;;;;;;;;;;;;;350064;28;917;-82
2022/05/12 00:50:14;;;;;;;;;;;;;;;;;;350124;28;979;-82
2022/05/12 00:50:30;;;;;;;;;;;;;;;;;;349931;28;1002;-82
2022/05/12 00:50:43;;;;;;;;;;;;;;;;;;350066;28;929;-82
2022/05/12 00:50:53;;;;;;;;;;;;;;;;;;350107;28;896;-83
2022/05/12 00:51:05;;;;;;;;;;;;;;;;;;350125;28;979;-82
2022/05/12 00:51:18;;;;;;;;;;;;;;;;;;350091;28;889;-82
2022/05/12 00:51:32;;;;;;;;;;;;;;;;;;350061;28;995;-82
2022/05/12 00:51:45;;;;;;;;;;;;;;;;;;350007;28;916;-82
2022/05/12 00:52:09;;;;;;;;;;;;;;;;;;350119;28;857;-82
2022/05/12 00:52:23;;;;;;;;;;;;;;;;;;350095;28;979;-82
2022/05/12 00:52:33;;;;;;;;;;;;;;;;;;350108;28;940;-82
2022/05/12 00:52:44;;;;;;;;;;;;;;;;;;350076;28;983;-82
2022/05/12 00:52:55;;;;;;;;;;;;;;;;;;350095;28;972;-83
2022/05/12 00:53:07;;;;;;;;;;;;;;;;;;350103;28;936;-83
2022/05/12 00:53:17;;;;;;;;;;;;;;;;;;350056;28;999;-82
2022/05/12 00:53:29;;;;;;;;;;;;;;;;;;350092;28;806;-82
2022/05/12 00:53:40;;;;;;;;;;;;;;;;;;350114;28;972;-82
2022/05/12 00:53:52;;;;;;;;;;;;;;;;;;349998;28;999;-82
2022/05/12 00:54:04;;;;;;;;;;;;;;;;;;350009;28;1017;-82
2022/05/12 00:54:34;;;;;;;;;;;;;;;;;;350077;28;1000;-82
2022/05/12 00:54:44;;;;;;;;;;;;;;;;;;349540;28;1035;-83
2022/05/12 00:54:57;;;;;;;;;;;;;;;;;;350129;28;802;-83
2022/05/12 00:55:10;;;;;;;;;;;;;;;;;;349391;28;1292;-82
2022/05/12 00:55:25;;;;;;;;;;;;;;;;;;350107;28;805;-82
2022/05/12 00:55:36;;;;;;;;;;;;;;;;;;350029;28;987;-82
2022/05/12 00:55:47;;;;;;;;;;;;;;;;;;350025;28;940;-82
2022/05/12 00:55:58;;;;;;;;;;;;;;;;;;350102;28;932;-83
2022/05/12 00:56:11;;;;;;;;;;;;;;;;;;349997;28;1197;-82
2022/05/12 00:56:22;;;;;;;;;;;;;;;;;;350069;28;932;-82
2022/05/12 00:56:34;;;;;;;;;;;;;;;;;;350097;28;857;-82
2022/05/12 00:56:44;;;;;;;;;;;;;;;;;;350068;28;1028;-82
2022/05/12 00:56:55;;;;;;;;;;;;;;;;;;350100;28;923;-82
2022/05/12 00:57:08;;;;;;;;;;;;;;;;;;350038;28;975;-82
2022/05/12 00:57:27;;;;;;;;;;;;;;;;;;349960;28;1118;-82
2022/05/12 00:57:45;;;;;;;;;;;;;;;;;;350079;28;1015;-82
2022/05/12 00:57:55;;;;;;;;;;;;;;;;;;350001;28;833;-82
2022/05/12 00:58:07;;;;;;;;;;;;;;;;;;350085;28;925;-82
2022/05/12 00:58:19;;;;;;;;;;;;;;;;;;350063;28;1076;-82
2022/05/12 00:58:31;;;;;;;;;;;;;;;;;;350070;28;900;-82
2022/05/12 00:58:41;;;;;;;;;;;;;;;;;;350111;28;924;-82
2022/05/12 00:58:54;;;;;;;;;;;;;;;;;;350138;28;830;-82
2022/05/12 00:59:07;;;;;;;;;;;;;;;;;;350069;28;980;-83
2022/05/12 00:59:22;;;;;;;;;;;;;;;;;;349944;28;1015;-83
2022/05/12 00:59:33;;;;;;;;;;;;;;;;;;350002;28;932;-83
2022/05/12 00:59:43;;;;;;;;;;;;;;;;;;350116;28;841;-83
2022/05/12 00:59:54;;;;;;;;;;;;;;;;;;349956;28;975;-82
2022/05/12 01:00:08;;;;;;;;;;;;;;;;;;350065;28;821;-82
2022/05/12 01:00:19;;;;;;;;;;;;;;;;;;350059;28;853;-83
2022/05/12 01:00:29;;;;;;;;;;;;;;;;;;350089;28;856;-82
2022/05/12 01:00:40;;;;;;;;;;;;;;;;;;349905;28;908;-82
2022/05/12 01:00:50;;;;;;;;;;;;;;;;;;349847;28;809;-82
2022/05/12 01:01:02;;;;;;;;;;;;;;;;;;349719;28;1042;-82
2022/05/12 01:01:12;;;;;;;;;;;;;;;;;;349876;28;928;-82
2022/05/12 01:01:23;;;;;;;;;;;;;;;;;;350021;28;787;-82
2022/05/12 01:01:33;;;;;;;;;;;;;;;;;;350045;28;984;-82
2022/05/12 01:01:43;;;;;;;;;;;;;;;;;;350059;28;934;-82
2022/05/12 01:01:53;;;;;;;;;;;;;;;;;;350017;28;1310;-82
2022/05/12 01:02:08;;;;;;;;;;;;;;;;;;349939;28;1031;-82
2022/05/12 01:02:19;;;;;;;;;;;;;;;;;;348732;28;773;-82
2022/05/12 01:02:31;;;;;;;;;;;;;;;;;;348620;28;905;-82
2022/05/12 01:02:44;;;;;;;;;;;;;;;;;;348532;28;851;-82
2022/05/12 01:02:56;;;;;;;;;;;;;;;;;;348602;28;983;-82
2022/05/12 01:03:10;;;;;;;;;;;;;;;;;;348600;28;980;-82
2022/05/12 01:03:25;;;;;;;;;;;;;;;;;;348626;28;762;-83
2022/05/12 01:03:37;;;;;;;;;;;;;;;;;;348533;28;937;-82
2022/05/12 01:03:48;;;;;;;;;;;;;;;;;;348643;28;779;-82
2022/05/12 01:03:58;;;;;;;;;;;;;;;;;;348706;28;976;-82
2022/05/12 01:04:08;;;;;;;;;;;;;;;;;;348656;28;988;-82
2022/05/12 01:04:20;;;;;;;;;;;;;;;;;;348671;28;857;-82
2022/05/12 01:04:31;;;;;;;;;;;;;;;;;;348689;28;885;-82
2022/05/12 01:04:42;;;;;;;;;;;;;;;;;;348688;28;841;-83
2022/05/12 01:04:56;;;;;;;;;;;;;;;;;;348719;28;976;-83
2022/05/12 01:05:06;;;;;;;;;;;;;;;;;;348697;28;884;-82
2022/05/12 01:05:17;;;;;;;;;;;;;;;;;;348721;28;878;-83
2022/05/12 01:05:27;;;;;;;;;;;;;;;;;;348650;28;889;-83
2022/05/12 01:05:38;;;;;;;;;;;;;;;;;;348604;28;1055;-82
2022/05/12 01:05:48;;;;;;;;;;;;;;;;;;348699;28;897;-82
2022/05/12 01:05:58;;;;;;;;;;;;;;;;;;348398;28;1304;-82
2022/05/12 01:06:10;;;;;;;;;;;;;;;;;;349583;28;1329;-82
2022/05/12 01:06:20;;;;;;;;;;;;;;;;;;349995;28;963;-82
2022/05/12 01:06:30;;;;;;;;;;;;;;;;;;350045;28;1042;-82
2022/05/12 01:06:41;;;;;;;;;;;;;;;;;;350079;28;908;-82
2022/05/12 01:06:52;;;;;;;;;;;;;;;;;;350117;28;829;-82
2022/05/12 01:07:02;;;;;;;;;;;;;;;;;;350125;28;975;-82
2022/05/12 01:07:12;;;;;;;;;;;;;;;;;;350068;28;912;-82
2022/05/12 01:07:23;;;;;;;;;;;;;;;;;;349786;28;1504;-82
2022/05/12 01:07:33;;;;;;;;;;;;;;;;;;349617;28;1205;-82
2022/05/12 01:07:43;;;;;;;;;;;;;;;;;;350021;28;936;-83
2022/05/12 01:07:55;;;;;;;;;;;;;;;;;;350043;28;995;-83
2022/05/12 01:08:09;;;;;;;;;;;;;;;;;;349971;28;1973;-82
2022/05/12 01:08:20;;;;;;;;;;;;;;;;;;350099;28;825;-82
2022/05/12 01:08:31;;;;;;;;;;;;;;;;;;350055;28;948;-82
2022/05/12 01:08:42;;;;;;;;;;;;;;;;;;350056;28;972;-82
2022/05/12 01:08:53;;;;;;;;;;;;;;;;;;350056;28;963;-82
2022/05/12 01:09:03;;;;;;;;;;;;;;;;;;350091;28;833;-82
2022/05/12 01:09:13;;;;;;;;;;;;;;;;;;350058;28;904;-82
2022/05/12 01:09:25;;;;;;;;;;;;;;;;;;350052;28;1032;-82
2022/05/12 01:09:36;;;;;;;;;;;;;;;;;;350059;28;1015;-82
2022/05/12 01:09:46;;;;;;;;;;;;;;;;;;350055;28;952;-83
2022/05/12 01:09:57;;;;;;;;;;;;;;;;;;350004;28;992;-82
2022/05/12 01:10:09;;;;;;;;;;;;;;;;;;350109;28;928;-83
2022/05/12 01:10:19;;;;;;;;;;;;;;;;;;350101;28;924;-83
2022/05/12 01:10:29;;;;;;;;;;;;;;;;;;349984;28;972;-83
2022/05/12 01:10:41;;;;;;;;;;;;;;;;;;349980;28;1172;-82
2022/05/12 01:10:57;;;;;;;;;;;;;;;;;;350084;28;802;-82
2022/05/12 01:11:11;;;;;;;;;;;;;;;;;;350057;28;908;-82
2022/05/12 01:11:22;;;;;;;;;;;;;;;;;;349391;28;1680;-82
2022/05/12 01:11:34;;;;;;;;;;;;;;;;;;349968;28;1593;-82
2022/05/12 01:11:45;;;;;;;;;;;;;;;;;;350007;28;1059;-82
2022/05/12 01:11:55;;;;;;;;;;;;;;;;;;350107;28;881;-82
2022/05/12 01:12:06;;;;;;;;;;;;;;;;;;350000;28;1051;-82
2022/05/12 01:12:16;;;;;;;;;;;;;;;;;;349748;28;1178;-82
2022/05/12 01:12:26;;;;;;;;;;;;;;;;;;350003;28;984;-82
2022/05/12 01:12:38;;;;;;;;;;;;;;;;;;350009;28;940;-82
2022/05/12 01:12:49;;;;;;;;;;;;;;;;;;350038;28;916;-82
2022/05/12 01:12:59;;;;;;;;;;;;;;;;;;350090;28;1128;-82
2022/05/12 01:13:09;;;;;;;;;;;;;;;;;;350058;28;817;-82
2022/05/12 01:13:20;;;;;;;;;;;;;;;;;;349940;28;987;-82
2022/05/12 01:13:31;;;;;;;;;;;;;;;;;;349287;28;1440;-82
2022/05/12 01:13:43;;;;;;;;;;;;;;;;;;350045;28;951;-82
2022/05/12 01:14:00;;;;;;;;;;;;;;;;;;350040;28;1007;-82
2022/05/12 01:14:11;;;;;;;;;;;;;;;;;;349863;28;1375;-82
2022/05/12 01:14:21;;;;;;;;;;;;;;;;;;350114;28;794;-82
2022/05/12 01:14:32;;;;;;;;;;;;;;;;;;350054;28;806;-83
2022/05/12 01:14:42;;;;;;;;;;;;;;;;;;350000;28;849;-82
2022/05/12 01:14:52;;;;;;;;;;;;;;;;;;350034;28;905;-82
2022/05/12 01:15:02;;;;;;;;;;;;;;;;;;350078;28;925;-82
2022/05/12 01:15:13;;;;;;;;;;;;;;;;;;350032;28;919;-82
2022/05/12 01:15:26;;;;;;;;;;;;;;;;;;350056;28;921;-82
2022/05/12 01:15:37;;;;;;;;;;;;;;;;;;350061;28;972;-82
2022/05/12 01:16:05;;;;;;;;;;;;;;;;;;350048;28;900;-82
2022/05/12 01:16:51;;;;;;;;;;;;;;;;;;350013;28;984;-82
2022/05/12 01:17:02;;;;;;;;;;;;;;;;;;347170;28;930;-82
2022/05/12 01:17:13;;;;;;;;;;;;;;;;;;347175;28;837;-82
2022/05/12 01:17:24;;;;;;;;;;;;;;;;;;347080;28;1385;-82
2022/05/12 01:17:34;;;;;;;;;;;;;;;;;;347133;28;965;-82
2022/05/12 01:17:45;;;;;;;;;;;;;;;;;;347143;28;940;-82
2022/05/12 01:18:06;;;;;;;;;;;;;;;;;;347157;28;905;-83
2022/05/12 01:18:18;;;;;;;;;;;;;;;;;;347098;28;823;-83
2022/05/12 01:18:30;;;;;;;;;;;;;;;;;;347175;28;941;-82
2022/05/12 01:18:40;;;;;;;;;;;;;;;;;;347136;28;1045;-82
2022/05/12 01:18:50;;;;;;;;;;;;;;;;;;346930;28;1015;-82
2022/05/12 01:19:01;;;;;;;;;;;;;;;;;;347151;28;1000;-82
2022/05/12 01:19:15;;;;;;;;;;;;;;;;;;347201;28;830;-83
2022/05/12 01:19:27;;;;;;;;;;;;;;;;;;347101;28;988;-82
2022/05/12 01:19:39;;;;;;;;;;;;;;;;;;347149;28;965;-82
2022/05/12 01:19:51;;;;;;;;;;;;;;;;;;347503;28;1141;-82
2022/05/12 01:20:01;;;;;;;;;;;;;;;;;;350055;28;920;-82
2022/05/12 01:20:13;;;;;;;;;;;;;;;;;;350112;28;928;-83
2022/05/12 01:20:23;;;;;;;;;;;;;;;;;;350032;28;975;-83
2022/05/12 01:20:34;;;;;;;;;;;;;;;;;;349378;28;1342;-83
2022/05/12 01:20:46;;;;;;;;;;;;;;;;;;350068;28;979;-82
2022/05/12 01:20:57;;;;;;;;;;;;;;;;;;350000;28;904;-82
2022/05/12 01:21:08;;;;;;;;;;;;;;;;;;350072;28;829;-82